Terminal Aerodrome Forecast
Issued by NWS Binghamton, NY

Home | Current Version | Previous Version | Text Only | Print | Product List | Glossary On
Versions: 1 2 3 4 5 6 7 8 9 10 11 12 13 14 15 16 17 18 19 20 21 22 23 24 25 26 27 28 29 30 31
312
FTUS41 KBGM 271732
TAFBGM
TAF
KBGM 271732Z 2718/2818 20007KT P6SM OVC008
     FM271900 22007KT P6SM OVC012
     FM272100 21004KT P6SM BKN020 OVC035
     FM280400 VRB03KT P6SM OVC015
     FM280600 00000KT 3SM BR OVC003
      TEMPO 2809/2813 1/2SM FG
     FM281400 00000KT P6SM OVC009
     FM281700 00000KT P6SM -SHRA OVC010=

USA.gov is the U.S. government's official web portal to all federal, state and local government web resources and services.